Time;durP1;ratioP1;P1;durP2;ratioP2;P2;SDS_P1;SDS_P2;PMS_P1;PMS_P2;Temp;Humidity;BMP_temperature;BMP_pressure;BME280_temperature;BME280_humidity;BME280_pressure;Samples;Min_cycle;Max_cycle;Signal;HPM_P1;HPM_P2
2022/09/23 00:00:04;;;;;;;20.15;12.57;;;10.40;99.90;;;;;;4861398;29;20030;-61
2022/09/23 00:02:30;;;;;;;48.47;18.38;;;10.40;99.90;;;;;;4861488;29;20060;-59
2022/09/23 00:04:55;;;;;;;23.35;15.25;;;10.20;99.90;;;;;;4861198;29;20078;-60
2022/09/23 00:07:21;;;;;;;20.38;13.68;;;10.20;99.90;;;;;;4861379;29;20529;-59
2022/09/23 00:09:46;;;;;;;33.63;18.08;;;10.10;99.90;;;;;;4861166;29;20100;-60
2022/09/23 00:12:12;;;;;;;17.13;12.20;;;10.00;99.90;;;;;;4861031;29;20026;-57
2022/09/23 00:14:38;;;;;;;15.82;12.27;;;10.00;99.90;;;;;;4861177;29;20065;-55
2022/09/23 00:17:04;;;;;;;16.02;12.75;;;10.00;99.90;;;;;;4861119;29;20037;-60
2022/09/23 00:19:30;;;;;;;15.35;10.98;;;10.00;99.90;;;;;;4860968;29;20033;-63
2022/09/23 00:21:56;;;;;;;13.88;10.75;;;10.10;99.90;;;;;;4860873;29;20389;-61
2022/09/23 00:24:22;;;;;;;11.82;9.57;;;10.00;99.90;;;;;;4861051;29;20025;-61
2022/09/23 00:26:48;;;;;;;12.27;8.90;;;10.10;99.90;;;;;;4861046;29;20030;-63
2022/09/23 00:29:14;;;;;;;12.43;8.88;;;10.10;99.90;;;;;;4861032;29;20025;-62
2022/09/23 00:31:41;;;;;;;12.10;9.07;;;10.00;99.90;;;;;;4861054;29;20029;-61
2022/09/23 00:34:09;;;;;;;10.23;8.52;;;10.10;99.90;;;;;;4860884;29;20030;-63
2022/09/23 00:36:35;;;;;;;9.32;7.50;;;10.10;99.90;;;;;;4860810;29;20053;-62
2022/09/23 00:39:03;;;;;;;10.75;7.90;;;10.10;99.90;;;;;;4861074;29;20061;-60
2022/09/23 00:41:29;;;;;;;8.18;6.68;;;10.20;99.90;;;;;;4860658;29;20053;-64
2022/09/23 00:43:59;;;;;;;9.13;6.97;;;10.20;99.90;;;;;;4861105;29;20063;-58
2022/09/23 00:46:29;;;;;;;7.72;6.07;;;10.20;99.90;;;;;;4860775;29;20125;-57
2022/09/23 00:49:00;;;;;;;7.32;5.70;;;10.20;99.90;;;;;;4860957;29;20075;-61
2022/09/23 00:51:32;;;;;;;6.45;5.22;;;10.30;99.90;;;;;;4860551;29;20029;-63
2022/09/23 00:53:58;;;;;;;7.53;5.55;;;10.30;99.90;;;;;;4860822;29;20161;-60
2022/09/23 00:56:24;;;;;;;8.40;5.97;;;10.30;99.90;;;;;;4860688;29;20026;-60
2022/09/23 00:58:50;;;;;;;6.57;4.97;;;10.30;99.90;;;;;;4860778;29;20042;-58
2022/09/23 01:01:18;;;;;;;6.43;5.30;;;10.20;99.90;;;;;;4860729;29;20057;-63
2022/09/23 01:03:45;;;;;;;7.13;5.97;;;10.20;99.90;;;;;;4860860;29;20077;-61
2022/09/23 01:06:11;;;;;;;6.95;5.32;;;10.20;99.90;;;;;;4860933;29;20031;-61
2022/09/23 01:08:38;;;;;;;8.60;6.40;;;10.10;99.90;;;;;;4864509;29;20038;-62
2022/09/23 01:11:33;;;;;;;6.75;5.50;;;10.00;99.90;;;;;;4864087;29;20057;-59
2022/09/23 01:14:26;;;;;;;7.85;5.78;;;10.00;99.90;;;;;;4861272;29;20466;-61
2022/09/23 01:17:14;;;;;;;7.35;5.95;;;10.00;99.90;;;;;;4864160;29;20021;-61
2022/09/23 01:20:20;;;;;;;8.43;6.00;;;9.90;99.90;;;;;;4863807;29;20481;-59
2022/09/23 01:23:18;;;;;;;6.68;5.93;;;9.90;99.90;;;;;;4832795;29;20485;-64
2022/09/23 01:26:05;;;;;;;7.47;5.90;;;9.90;99.90;;;;;;4840007;29;20086;-61
2022/09/23 01:28:59;;;;;;;8.10;6.22;;;9.90;99.90;;;;;;4863880;29;20033;-61
2022/09/23 01:31:43;;;;;;;9.00;6.82;;;9.90;99.90;;;;;;4863874;29;20037;-61
2022/09/23 01:34:30;;;;;;;7.03;6.07;;;9.80;99.90;;;;;;4863551;29;20065;-64
2022/09/23 01:36:59;;;;;;;7.15;5.72;;;9.80;99.90;;;;;;4863772;29;20036;-64
2022/09/23 01:39:42;;;;;;;6.28;5.55;;;9.70;99.90;;;;;;4863362;29;20034;-61
2022/09/23 01:42:30;;;;;;;5.60;5.00;;;9.70;99.90;;;;;;4863617;29;20058;-62
2022/09/23 01:45:00;;;;;;;7.10;5.28;;;9.70;99.90;;;;;;4863581;29;20385;-64
2022/09/23 01:47:37;;;;;;;5.82;4.43;;;9.70;99.90;;;;;;4863597;29;20026;-62
2022/09/23 01:53:03;;;;;;;4.75;4.05;;;9.70;99.90;;;;;;4863768;29;20032;-61
2022/09/23 01:55:30;;;;;;;;;;;9.60;99.90;;;;;;4863981;29;20025;-63
2022/09/23 01:58:06;;;;;;;5.22;4.20;;;9.60;99.90;;;;;;4863462;29;19912;-62
2022/09/23 02:00:36;;;;;;;6.50;5.57;;;9.50;99.90;;;;;;4863254;29;20472;-60
2022/09/23 02:03:26;;;;;;;9.25;5.97;;;9.50;99.90;;;;;;4863274;29;20057;-63
2022/09/23 02:06:11;;;;;;;6.35;5.63;;;9.50;99.90;;;;;;4863438;29;20057;-61
2022/09/23 02:08:40;;;;;;;10.75;7.72;;;9.50;99.90;;;;;;4863485;29;20433;-59
2022/09/23 02:11:09;;;;;;;8.75;6.65;;;9.40;99.90;;;;;;4863359;29;20102;-59
2022/09/23 02:13:58;;;;;;;9.43;6.78;;;9.30;99.90;;;;;;4863094;29;20469;-58
2022/09/23 02:16:30;;;;;;;11.32;7.80;;;9.20;99.90;;;;;;4862946;29;20030;-60
2022/09/23 02:19:11;;;;;;;11.82;8.00;;;9.20;99.90;;;;;;4862095;29;20038;-63
2022/09/23 02:21:46;;;;;;;8.07;7.07;;;9.20;99.90;;;;;;4862920;29;20022;-61
2022/09/23 02:24:38;;;;;;;9.70;7.47;;;9.20;99.90;;;;;;4863016;29;20116;-61
2022/09/23 02:27:09;;;;;;;7.53;5.85;;;9.30;99.90;;;;;;4860287;29;20045;-59
2022/09/23 02:29:53;;;;;;;7.15;5.72;;;9.20;99.90;;;;;;4862814;29;20034;-61
2022/09/23 02:32:22;;;;;;;6.22;5.07;;;9.20;99.90;;;;;;4862669;29;20388;-64
2022/09/23 02:35:18;;;;;;;6.35;5.50;;;9.10;99.90;;;;;;4863042;29;20030;-62
2022/09/23 02:37:53;;;;;;;6.07;5.03;;;9.10;99.90;;;;;;4862595;29;20040;-62
2022/09/23 02:40:22;;;;;;;6.75;5.28;;;9.00;99.90;;;;;;4862504;29;20056;-61
2022/09/23 02:43:18;;;;;;;6.60;5.50;;;9.00;99.90;;;;;;4862578;29;20033;-63
2022/09/23 02:45:45;;;;;;;7.25;5.30;;;9.00;99.90;;;;;;4834115;29;20500;-61
2022/09/23 02:48:23;;;;;;;5.93;4.38;;;8.90;99.90;;;;;;4862655;29;20081;-64
2022/09/23 02:50:49;;;;;;;5.28;4.35;;;8.90;99.90;;;;;;4862662;29;20045;-60
2022/09/23 02:53:15;;;;;;;4.47;4.05;;;8.90;99.90;;;;;;4862610;29;20034;-63
2022/09/23 02:55:41;;;;;;;4.68;3.55;;;9.00;99.90;;;;;;4862393;29;20025;-62
2022/09/23 02:58:08;;;;;;;4.40;3.80;;;9.00;99.90;;;;;;4862492;29;20090;-58
2022/09/23 03:00:46;;;;;;;4.72;3.88;;;8.90;99.90;;;;;;4862006;29;20053;-61
2022/09/23 03:03:34;;;;;;;4.20;3.58;;;8.90;99.90;;;;;;4862216;29;20116;-60
2022/09/23 03:06:08;;;;;;;3.97;3.58;;;8.90;99.90;;;;;;4862118;29;20025;-60
2022/09/23 03:08:44;;;;;;;4.60;3.85;;;8.90;99.90;;;;;;4862264;29;20125;-63
2022/09/23 03:11:12;;;;;;;5.38;4.57;;;8.80;99.90;;;;;;4862218;29;20032;-61
2022/09/23 03:13:59;;;;;;;4.85;4.15;;;8.90;99.90;;;;;;4862134;29;20029;-63
2022/09/23 03:16:42;;;;;;;4.80;3.90;;;8.80;99.90;;;;;;4861807;29;20070;-62
2022/09/23 03:19:20;;;;;;;5.25;4.13;;;8.80;99.90;;;;;;4861868;29;20065;-61
2022/09/23 03:21:55;;;;;;;6.10;4.07;;;8.70;99.90;;;;;;4861905;29;20029;-60
2022/09/23 03:24:23;;;;;;;5.43;3.70;;;8.80;99.90;;;;;;4861811;29;20029;-60
2022/09/23 03:26:50;;;;;;;4.53;3.38;;;8.70;99.90;;;;;;4861973;29;20392;-63
2022/09/23 03:29:19;;;;;;;4.00;3.53;;;8.70;99.90;;;;;;4861882;29;20495;-60
2022/09/23 03:31:45;;;;;;;3.20;2.90;;;8.70;99.90;;;;;;4861743;29;20504;-64
2022/09/23 03:34:21;;;;;;;3.90;3.25;;;8.70;99.90;;;;;;4861856;29;20030;-61
2022/09/23 03:37:01;;;;;;;4.03;3.15;;;8.70;99.90;;;;;;4861782;29;20021;-61
2022/09/23 03:39:27;;;;;;;4.28;3.08;;;8.70;99.90;;;;;;4861585;29;20037;-64
2022/09/23 03:41:56;;;;;;;3.88;3.20;;;8.70;99.90;;;;;;4861893;29;20036;-61
2022/09/23 03:44:22;;;;;;;3.20;2.70;;;8.70;99.90;;;;;;4861629;29;20033;-60
2022/09/23 03:46:51;;;;;;;2.97;2.50;;;8.70;99.90;;;;;;4861491;29;20403;-63
2022/09/23 03:49:23;;;;;;;2.75;2.53;;;8.60;99.90;;;;;;4861612;29;20117;-63
2022/09/23 03:51:49;;;;;;;4.60;2.72;;;8.60;99.90;;;;;;4861365;29;20090;-60
2022/09/23 03:54:15;;;;;;;3.95;2.90;;;8.50;99.90;;;;;;4861593;29;20025;-62
2022/09/23 03:56:40;;;;;;;3.65;3.03;;;8.50;99.90;;;;;;4861550;29;20040;-65
2022/09/23 03:59:06;;;;;;;2.92;2.63;;;8.50;99.90;;;;;;4861403;29;20477;-61
2022/09/23 04:01:32;;;;;;;3.55;2.38;;;8.50;99.90;;;;;;4860040;29;20472;-61
2022/09/23 04:03:58;;;;;;;4.70;3.35;;;8.50;99.90;;;;;;4861412;29;20025;-60
2022/09/23 04:06:24;;;;;;;6.70;4.55;;;8.40;99.90;;;;;;4861256;29;20025;-61
2022/09/23 04:08:50;;;;;;;7.63;5.75;;;8.40;99.90;;;;;;4861173;29;20039;-61
2022/09/23 04:11:15;;;;;;;6.68;4.85;;;8.40;99.90;;;;;;4861483;29;20157;-60
2022/09/23 04:13:41;;;;;;;6.85;5.70;;;8.40;99.90;;;;;;4860985;29;20101;-61
2022/09/23 04:16:07;;;;;;;7.63;5.57;;;8.40;99.90;;;;;;4861449;29;20026;-64
2022/09/23 04:18:32;;;;;;;7.72;5.90;;;8.40;99.90;;;;;;4861217;29;20476;-63
2022/09/23 04:20:58;;;;;;;7.13;5.32;;;8.40;99.90;;;;;;4861353;29;20029;-64
2022/09/23 04:23:27;;;;;;;5.95;4.43;;;8.40;99.90;;;;;;4861307;29;20472;-63
2022/09/23 04:25:53;;;;;;;7.78;4.78;;;8.30;99.90;;;;;;4861188;29;20392;-63
2022/09/23 04:28:19;;;;;;;5.68;4.53;;;8.30;99.90;;;;;;4860808;29;20034;-61
2022/09/23 04:30:46;;;;;;;5.68;5.03;;;8.20;99.90;;;;;;4860995;29;20032;-62
2022/09/23 04:33:12;;;;;;;8.02;5.72;;;8.20;99.90;;;;;;4860946;29;20362;-63
2022/09/23 04:35:39;;;;;;;8.25;6.20;;;8.10;99.90;;;;;;4860898;29;20025;-63
2022/09/23 04:38:05;;;;;;;9.00;6.65;;;8.00;99.90;;;;;;4860779;29;20048;-63
2022/09/23 04:40:32;;;;;;;9.90;7.07;;;8.00;99.90;;;;;;4860583;29;20054;-62
2022/09/23 04:42:57;;;;;;;6.95;5.75;;;7.90;99.90;;;;;;4863864;29;20028;-59
2022/09/23 04:45:23;;;;;;;8.05;5.88;;;7.90;99.90;;;;;;4864697;29;20112;-60
2022/09/23 04:47:49;;;;;;;6.63;5.50;;;7.90;99.90;;;;;;4864562;29;20026;-65
2022/09/23 04:50:14;;;;;;;7.05;4.93;;;8.00;99.90;;;;;;4864680;29;20057;-57
2022/09/23 04:52:40;;;;;;;6.28;5.18;;;8.00;99.90;;;;;;4864592;29;20033;-64
2022/09/23 04:55:07;;;;;;;7.05;5.05;;;8.00;99.90;;;;;;4867744;29;20036;-64
2022/09/23 04:57:33;;;;;;;5.18;4.55;;;8.10;99.90;;;;;;4871453;29;20037;-60
2022/09/23 04:59:59;;;;;;;6.18;4.68;;;8.10;99.90;;;;;;4871673;29;20037;-62
2022/09/23 05:02:26;;;;;;;5.35;4.00;;;8.20;99.90;;;;;;4882697;29;20032;-58
2022/09/23 05:04:51;;;;;;;6.43;4.68;;;8.20;99.90;;;;;;4899008;29;20067;-60
2022/09/23 05:07:17;;;;;;;7.07;4.63;;;8.20;99.90;;;;;;4901185;29;20049;-62
2022/09/23 05:09:44;;;;;;;4.68;4.20;;;8.20;99.90;;;;;;4901320;29;20029;-62
2022/09/23 05:12:10;;;;;;;7.97;5.68;;;8.20;99.90;;;;;;4900650;29;20020;-61
2022/09/23 05:14:37;;;;;;;6.25;4.32;;;8.30;99.90;;;;;;4900894;29;20032;-60
2022/09/23 05:17:04;;;;;;;4.25;3.45;;;8.30;99.90;;;;;;4901269;29;20036;-64
2022/09/23 05:19:30;;;;;;;5.65;4.25;;;8.30;99.90;;;;;;4884375;29;20033;-61
2022/09/23 05:21:56;;;;;;;6.82;4.68;;;8.40;99.90;;;;;;4886692;29;20039;-60
2022/09/23 05:24:23;;;;;;;11.10;6.60;;;8.50;99.90;;;;;;4874895;29;20075;-60
2022/09/23 05:26:49;;;;;;;6.20;5.07;;;8.40;99.90;;;;;;4869395;29;20057;-62
2022/09/23 05:29:15;;;;;;;8.05;6.18;;;8.40;99.90;;;;;;4871083;29;20048;-62
2022/09/23 05:31:41;;;;;;;10.00;6.35;;;8.50;99.90;;;;;;4874528;29;20096;-61
2022/09/23 05:34:07;;;;;;;9.32;6.25;;;8.60;99.90;;;;;;4880604;29;20025;-64
2022/09/23 05:36:35;;;;;;;8.80;6.40;;;8.70;99.90;;;;;;4869868;29;20133;-56
2022/09/23 05:39:01;;;;;;;9.68;6.35;;;8.70;99.90;;;;;;4861184;29;20074;-62
2022/09/23 05:41:26;;;;;;;10.10;6.75;;;8.70;99.90;;;;;;4860947;29;20050;-60
2022/09/23 05:43:53;;;;;;;9.35;7.05;;;8.70;99.90;;;;;;4862069;29;20493;-62
2022/09/23 05:46:26;;;;;;;8.15;5.97;;;8.70;99.90;;;;;;4874830;29;20040;-62
2022/09/23 05:48:53;;;;;;;8.95;6.90;;;8.80;99.90;;;;;;4879497;29;20112;-63
2022/09/23 05:51:21;;;;;;;15.73;10.85;;;8.90;99.90;;;;;;4863043;29;20177;-62
2022/09/23 05:53:49;;;;;;;16.10;10.50;;;9.10;99.90;;;;;;4859610;29;20072;-62
2022/09/23 05:56:17;;;;;;;15.60;10.43;;;9.10;99.90;;;;;;4872848;29;20025;-59
2022/09/23 05:58:43;;;;;;;13.60;9.18;;;9.20;99.90;;;;;;4866436;29;20040;-57
2022/09/23 06:01:14;;;;;;;19.17;12.55;;;9.20;99.90;;;;;;4877611;29;20025;-60
2022/09/23 06:03:40;;;;;;;15.25;10.20;;;9.40;99.90;;;;;;4881431;29;20036;-59
2022/09/23 06:06:10;;;;;;;12.75;9.10;;;9.50;99.90;;;;;;4881632;29;20033;-63
2022/09/23 06:08:36;;;;;;;16.20;10.60;;;10.70;99.90;;;;;;4873739;29;20033;-62
2022/09/23 06:11:06;;;;;;;12.63;9.73;;;13.20;99.90;;;;;;4878386;29;20112;-59
2022/09/23 06:13:38;;;;;;;12.43;9.70;;;15.40;97.40;;;;;;4879004;29;20021;-62
2022/09/23 06:16:06;;;;;;;9.75;8.60;;;17.10;82.20;;;;;;4879485;29;20073;-59
2022/09/23 06:18:32;;;;;;;8.57;7.68;;;18.30;70.90;;;;;;4892474;29;20032;-62
2022/09/23 06:21:02;;;;;;;15.23;11.80;;;19.00;66.40;;;;;;4895782;29;20025;-63
2022/09/23 06:23:28;;;;;;;11.95;9.48;;;20.00;61.30;;;;;;4894464;29;20032;-63
2022/09/23 06:26:00;;;;;;;15.02;10.77;;;20.80;59.10;;;;;;4896638;29;20499;-61
2022/09/23 06:28:31;;;;;;;10.57;9.55;;;21.50;56.40;;;;;;4876712;29;20029;-61
2022/09/23 06:31:04;;;;;;;11.00;8.43;;;22.10;53.30;;;;;;4868953;29;20072;-60
2022/09/23 06:33:30;;;;;;;9.02;7.32;;;22.60;52.90;;;;;;4859919;29;20037;-64
2022/09/23 06:35:57;;;;;;;7.35;5.97;;;23.00;49.70;;;;;;4863433;29;20037;-63
2022/09/23 06:38:23;;;;;;;8.02;7.22;;;23.10;50.40;;;;;;4860494;29;20053;-61
2022/09/23 06:40:50;;;;;;;10.13;9.07;;;23.80;49.60;;;;;;4880593;29;20056;-61
2022/09/23 06:43:16;;;;;;;12.32;11.02;;;24.30;48.40;;;;;;4898053;29;20399;-64
2022/09/23 06:45:41;;;;;;;15.23;13.45;;;24.60;47.50;;;;;;4881580;29;20131;-61
2022/09/23 06:48:08;;;;;;;22.85;19.35;;;24.70;47.10;;;;;;4881428;29;20061;-64
2022/09/23 06:50:35;;;;;;;20.08;17.05;;;24.10;46.40;;;;;;4880455;29;20080;-59
2022/09/23 06:53:02;;;;;;;34.88;28.00;;;23.90;47.60;;;;;;4887956;29;20430;-59
2022/09/23 06:55:27;;;;;;;23.38;19.98;;;24.00;46.20;;;;;;4862382;29;20035;-64
2022/09/23 06:57:56;;;;;;;25.02;19.27;;;23.90;47.20;;;;;;4862198;29;20449;-61
2022/09/23 07:00:30;;;;;;;23.60;20.88;;;24.10;46.40;;;;;;4858002;29;20026;-62
2022/09/23 07:02:56;;;;;;;20.90;18.23;;;23.10;47.00;;;;;;4857775;29;20078;-61
2022/09/23 07:05:31;;;;;;;18.52;16.63;;;23.30;47.50;;;;;;4863224;29;20032;-62
2022/09/23 07:07:58;;;;;;;27.90;20.58;;;24.10;46.60;;;;;;4896431;29;20429;-65
2022/09/23 07:10:27;;;;;;;25.55;20.70;;;24.80;45.20;;;;;;4895865;29;20028;-62
2022/09/23 07:12:54;;;;;;;27.52;23.30;;;24.60;45.20;;;;;;4894313;29;20084;-64
2022/09/23 07:15:19;;;;;;;19.48;17.45;;;24.50;45.80;;;;;;4894878;29;20072;-63
2022/09/23 07:17:45;;;;;;;17.02;15.30;;;25.10;46.00;;;;;;4895338;29;20358;-63
2022/09/23 07:20:11;;;;;;;17.90;15.95;;;25.90;45.50;;;;;;4895818;29;20128;-66
2022/09/23 07:22:39;;;;;;;18.38;16.40;;;26.50;44.10;;;;;;4897307;29;20028;-63
2022/09/23 07:25:05;;;;;;;15.23;13.63;;;27.10;44.00;;;;;;4897151;29;20111;-66
2022/09/23 07:27:48;;;;;;;14.77;13.32;;;27.60;42.70;;;;;;4894066;29;20568;-63
2022/09/23 07:30:14;;;;;;;13.07;11.77;;;27.90;42.70;;;;;;4876940;29;20551;-64
2022/09/23 07:32:40;;;;;;;20.25;15.45;;;28.20;42.10;;;;;;4882013;29;20128;-64
2022/09/23 07:35:10;;;;;;;21.33;15.93;;;28.20;40.40;;;;;;4878752;29;21463;-66
2022/09/23 07:37:36;;;;;;;17.17;13.90;;;27.70;40.80;;;;;;4887070;29;20463;-68
2022/09/23 07:40:03;;;;;;;17.02;13.38;;;27.60;41.70;;;;;;4873851;29;20085;-63
2022/09/23 07:42:28;;;;;;;13.45;12.05;;;27.90;40.30;;;;;;4884667;29;20060;-65
2022/09/23 07:44:55;;;;;;;17.05;12.05;;;27.50;41.20;;;;;;4893077;29;20037;-64
2022/09/23 07:47:22;;;;;;;14.18;11.68;;;27.80;40.40;;;;;;4862416;29;20036;-61
2022/09/23 07:49:48;;;;;;;22.33;14.30;;;27.60;41.40;;;;;;4889411;29;20029;-62
2022/09/23 07:52:19;;;;;;;16.27;13.05;;;27.40;40.70;;;;;;4859818;29;20032;-62
2022/09/23 07:54:46;;;;;;;20.60;15.35;;;27.20;41.60;;;;;;4877969;29;20159;-63
2022/09/23 07:57:12;;;;;;;25.25;20.08;;;26.60;42.60;;;;;;4851768;29;20373;-61
2022/09/23 07:59:38;;;;;;;21.38;17.23;;;26.60;42.00;;;;;;4859059;29;20108;-66
2022/09/23 08:02:04;;;;;;;21.13;17.10;;;26.60;43.20;;;;;;4866837;29;20033;-63
2022/09/23 08:04:30;;;;;;;24.65;19.88;;;27.40;42.20;;;;;;4883696;29;20120;-65
2022/09/23 08:06:59;;;;;;;21.85;17.88;;;28.00;41.10;;;;;;4876919;29;20033;-62
2022/09/23 08:09:34;;;;;;;19.55;16.48;;;28.30;41.50;;;;;;4881510;29;20025;-61
2022/09/23 08:12:00;;;;;;;15.27;13.68;;;28.70;40.40;;;;;;4866620;29;20037;-62
2022/09/23 08:14:26;;;;;;;14.95;11.93;;;29.20;39.70;;;;;;4875088;29;20403;-63
2022/09/23 08:16:52;;;;;;;12.70;11.40;;;29.60;40.30;;;;;;4891359;29;20032;-64
2022/09/23 08:19:19;;;;;;;16.45;11.88;;;29.60;39.00;;;;;;4895457;29;20750;-63
2022/09/23 08:21:48;;;;;;;12.88;9.90;;;29.20;37.50;;;;;;4895996;29;20104;-64
2022/09/23 08:24:17;;;;;;;13.55;10.82;;;28.40;39.20;;;;;;4871745;29;20036;-63
2022/09/23 08:26:44;;;;;;;14.85;11.98;;;28.00;39.60;;;;;;4875851;29;20033;-67
2022/09/23 08:29:12;;;;;;;20.33;12.27;;;28.20;39.20;;;;;;4878381;29;20040;-63
2022/09/23 08:31:38;;;;;;;14.63;12.10;;;27.00;39.90;;;;;;4863252;29;20389;-65
2022/09/23 08:34:05;;;;;;;15.25;10.82;;;25.60;42.60;;;;;;4857621;29;20028;-66
2022/09/23 08:36:31;;;;;;;13.75;8.57;;;24.20;44.90;;;;;;4864042;29;20033;-62
2022/09/23 08:38:56;;;;;;;8.88;7.20;;;24.40;46.80;;;;;;4862652;29;20085;-64
2022/09/23 08:42:03;;;;;;;7.88;6.40;;;24.90;43.90;;;;;;4874298;29;20053;-61
2022/09/23 08:44:52;;;;;;;7.85;6.25;;;25.30;44.60;;;;;;4779908;30;20074;-62
2022/09/23 08:47:48;;;;;;;6.75;5.43;;;24.90;43.80;;;;;;4848840;29;20044;-62
2022/09/23 08:50:26;;;;;;;5.03;4.05;;;24.90;45.10;;;;;;4838609;29;20037;-60
2022/09/23 08:52:57;;;;;;;5.78;3.63;;;24.30;44.30;;;;;;4874316;29;20361;-63
2022/09/23 08:55:33;;;;;;;6.88;4.60;;;23.30;46.80;;;;;;4871286;29;20476;-66
2022/09/23 08:58:20;;;;;;;4.45;3.78;;;22.50;48.60;;;;;;4869315;29;20064;-62
2022/09/23 09:01:08;;;;;;;5.78;4.50;;;21.40;50.90;;;;;;4867211;29;20036;-61
2022/09/23 09:03:58;;;;;;;8.77;5.47;;;20.60;52.90;;;;;;4862294;29;20045;-62
2022/09/23 09:06:37;;;;;;;9.00;5.03;;;20.40;54.20;;;;;;4859057;29;20048;-63
2022/09/23 09:09:08;;;;;;;9.90;6.88;;;20.10;55.60;;;;;;4867988;29;20698;-64
2022/09/23 09:11:44;;;;;;;14.43;7.70;;;19.80;56.40;;;;;;4874726;29;20049;-62
2022/09/23 09:14:42;;;;;;;9.82;6.80;;;19.50;57.00;;;;;;4877194;29;20032;-61
2022/09/23 09:17:20;;;;;;;12.07;6.88;;;19.40;58.70;;;;;;4871156;29;20058;-64
2022/09/23 09:20:11;;;;;;;11.82;7.40;;;19.30;61.20;;;;;;4881873;29;20096;-64
2022/09/23 09:22:48;;;;;;;11.95;6.47;;;19.10;58.80;;;;;;4876175;29;20029;-65
2022/09/23 09:25:27;;;;;;;11.23;6.03;;;19.20;60.70;;;;;;4874211;29;20038;-64
2022/09/23 09:27:54;;;;;;;12.63;7.10;;;19.40;58.60;;;;;;4876630;29;20029;-64
2022/09/23 09:30:21;;;;;;;10.68;6.00;;;20.00;58.20;;;;;;4877269;29;20136;-62
2022/09/23 09:33:18;;;;;;;11.82;7.15;;;20.40;58.80;;;;;;4872796;29;20112;-64
2022/09/23 09:36:01;;;;;;;21.67;10.20;;;20.90;55.80;;;;;;4871085;29;20081;-63
2022/09/23 09:38:35;;;;;;;19.23;10.18;;;20.60;54.30;;;;;;4893479;29;20073;-65
2022/09/23 09:41:13;;;;;;;17.52;7.55;;;20.30;55.50;;;;;;4876874;29;20517;-63
2022/09/23 09:43:52;;;;;;;12.98;6.93;;;20.50;56.40;;;;;;4871398;29;20097;-62
2022/09/23 09:46:23;;;;;;;9.35;4.88;;;21.00;57.00;;;;;;4863911;29;20069;-64
2022/09/23 09:48:59;;;;;;;9.05;5.35;;;21.10;53.60;;;;;;4861156;29;20069;-66
2022/09/23 09:51:27;;;;;;;9.85;4.97;;;21.30;56.30;;;;;;4861907;29;20101;-63
2022/09/23 09:53:54;;;;;;;11.82;5.35;;;21.60;55.30;;;;;;4861496;29;20061;-59
2022/09/23 09:56:32;;;;;;;8.43;5.25;;;21.70;54.20;;;;;;4859371;29;20032;-63
2022/09/23 09:59:07;;;;;;;10.95;5.82;;;21.90;55.70;;;;;;4858230;29;20021;-64
2022/09/23 10:01:34;;;;;;;13.02;5.45;;;22.40;51.10;;;;;;4886364;29;20029;-65
2022/09/23 10:04:05;;;;;;;7.85;5.05;;;22.70;51.70;;;;;;4891439;29;20028;-62
2022/09/23 10:06:34;;;;;;;9.65;4.80;;;22.80;49.70;;;;;;4877695;29;20025;-64
2022/09/23 10:09:03;;;;;;;7.75;4.63;;;23.00;50.10;;;;;;4877561;29;20025;-62
2022/09/23 10:11:30;;;;;;;7.20;3.97;;;23.50;49.80;;;;;;4878408;29;20053;-61
2022/09/23 10:14:11;;;;;;;6.38;4.53;;;23.40;48.50;;;;;;4875110;29;20029;-64
2022/09/23 10:16:39;;;;;;;6.72;3.85;;;23.50;47.70;;;;;;4870543;29;20061;-60
2022/09/23 10:19:31;;;;;;;5.47;3.50;;;23.80;44.90;;;;;;4868780;29;20670;-63
2022/09/23 10:22:01;;;;;;;8.38;4.88;;;23.90;47.00;;;;;;4877164;29;20397;-64
2022/09/23 10:24:29;;;;;;;8.85;4.55;;;24.00;48.20;;;;;;4880736;29;20044;-65
2022/09/23 10:27:03;;;;;;;6.75;4.13;;;24.00;46.80;;;;;;4880496;29;20029;-66
2022/09/23 10:29:32;;;;;;;6.25;4.18;;;23.60;50.20;;;;;;4863215;29;20445;-63
2022/09/23 10:32:24;;;;;;;7.68;4.60;;;23.80;49.20;;;;;;4877349;29;20380;-66
2022/09/23 10:35:19;;;;;;;5.30;3.60;;;24.30;47.60;;;;;;4879134;29;20097;-65
2022/09/23 10:37:54;;;;;;;7.32;3.75;;;24.30;44.50;;;;;;4885697;29;20123;-62
2022/09/23 10:46:44;;;;;;;4.22;2.35;;;24.60;45.90;;;;;;4893726;29;20063;-60
2022/09/23 10:49:13;;;;;;;4.68;2.80;;;24.90;43.60;;;;;;4879429;29;20040;-65
2022/09/23 10:52:02;;;;;;;5.18;3.30;;;24.60;46.10;;;;;;4879511;29;20081;-63
2022/09/23 10:54:59;;;;;;;6.90;3.10;;;24.80;45.50;;;;;;4878764;29;20029;-63
2022/09/23 10:57:43;;;;;;;3.83;2.38;;;25.10;42.70;;;;;;4880012;29;20029;-64
2022/09/23 11:00:24;;;;;;;4.05;2.40;;;25.00;42.30;;;;;;4878809;29;20033;-65
2022/09/23 11:03:08;;;;;;;2.75;2.17;;;24.50;44.30;;;;;;4879158;29;20068;-64
2022/09/23 11:06:11;;;;;;;4.03;2.25;;;24.40;44.00;;;;;;4879268;29;20025;-62
2022/09/23 11:08:51;;;;;;;2.53;1.90;;;24.30;45.90;;;;;;4879828;29;20029;-63
2022/09/23 11:11:42;;;;;;;3.33;2.00;;;24.50;43.70;;;;;;4872707;29;20044;-67
2022/09/23 11:14:44;;;;;;;2.45;1.52;;;24.90;40.60;;;;;;4884945;29;20036;-64
2022/09/23 11:17:30;;;;;;;1.67;1.20;;;25.30;42.10;;;;;;4870869;29;20043;-63
2022/09/23 11:20:21;;;;;;;2.03;1.40;;;25.60;39.10;;;;;;5655971;23;20028;-64
2022/09/23 11:23:12;;;;;;;1.27;1.10;;;25.90;38.90;;;;;;4830109;29;20202;-62
2022/09/23 11:25:41;;;;;;;2.13;0.90;;;26.40;36.70;;;;;;4834126;29;20109;-62
2022/09/23 11:28:06;;;;;;;2.00;1.40;;;26.60;37.20;;;;;;4832600;29;20413;-61
2022/09/23 11:30:52;;;;;;;1.42;0.98;;;26.80;36.30;;;;;;4841094;29;20044;-63
2022/09/23 11:33:40;;;;;;;1.60;1.10;;;26.20;38.20;;;;;;4839871;29;20030;-64
2022/09/23 11:36:10;;;;;;;1.02;1.00;;;26.00;38.40;;;;;;4840970;29;20018;-66
2022/09/23 11:38:41;;;;;;;1.20;1.00;;;26.00;36.80;;;;;;4838349;29;20033;-60
2022/09/23 11:41:16;;;;;;;3.08;2.13;;;25.80;37.10;;;;;;4825289;29;20528;-59
2022/09/23 11:43:46;;;;;;;3.75;3.15;;;25.80;38.10;;;;;;4833476;29;20109;-60
2022/09/23 11:46:22;;;;;;;4.72;3.55;;;25.50;38.20;;;;;;4832464;29;20030;-59
2022/09/23 11:49:14;;;;;;;4.60;3.05;;;25.40;38.40;;;;;;4824541;29;20109;-58
2022/09/23 11:51:46;;;;;;;2.83;1.95;;;25.30;38.10;;;;;;4830177;29;20026;-59
2022/09/23 11:54:27;;;;;;;2.50;1.80;;;25.00;39.60;;;;;;4842965;29;20431;-59
2022/09/23 11:56:57;;;;;;;4.50;2.17;;;24.90;38.40;;;;;;4836412;29;20082;-58
2022/09/23 11:59:41;;;;;;;2.55;1.85;;;25.10;38.30;;;;;;4840311;29;20479;-60
2022/09/23 12:02:11;;;;;;;3.20;1.70;;;25.30;36.90;;;;;;4839983;29;20421;-56
2022/09/23 12:04:42;;;;;;;3.17;1.90;;;25.50;37.80;;;;;;4834370;29;20041;-60
2022/09/23 12:07:08;;;;;;;1.38;1.27;;;25.80;36.80;;;;;;4829782;29;20034;-64
2022/09/23 12:09:38;;;;;;;2.33;1.80;;;25.60;40.60;;;;;;4839414;29;20025;-61
2022/09/23 12:12:26;;;;;;;2.10;1.75;;;25.50;43.10;;;;;;4839443;29;20029;-62
2022/09/23 12:15:02;;;;;;;1.98;1.77;;;25.80;43.60;;;;;;4839394;29;20504;-62
2022/09/23 12:17:40;;;;;;;1.73;1.30;;;26.10;42.20;;;;;;4836829;29;20029;-63
2022/09/23 12:20:27;;;;;;;1.67;1.58;;;26.10;41.90;;;;;;4838670;29;20617;-61
2022/09/23 12:23:25;;;;;;;1.70;1.60;;;26.10;41.60;;;;;;4838057;29;20082;-64
2022/09/23 12:25:56;;;;;;;1.98;1.52;;;26.30;41.70;;;;;;4840367;29;20553;-65
2022/09/23 12:28:26;;;;;;;1.55;1.25;;;26.10;40.60;;;;;;4840710;29;20030;-62
2022/09/23 12:30:55;;;;;;;1.40;1.30;;;25.90;43.00;;;;;;4822162;29;20034;-61
2022/09/23 12:33:26;;;;;;;1.50;1.40;;;25.80;42.30;;;;;;4822773;29;20043;-62
2022/09/23 12:36:04;;;;;;;1.73;1.63;;;25.60;43.50;;;;;;4823471;29;20030;-63
2022/09/23 12:38:52;;;;;;;2.67;1.50;;;25.40;44.40;;;;;;4824329;29;20550;-61
2022/09/23 12:41:32;;;;;;;1.38;1.27;;;25.20;42.90;;;;;;4824687;29;20041;-61
2022/09/23 12:44:27;;;;;;;1.50;1.40;;;24.90;43.30;;;;;;4824465;29;20444;-63
2022/09/23 12:47:23;;;;;;;1.73;1.30;;;24.70;42.20;;;;;;4817765;29;20118;-64
2022/09/23 12:49:51;;;;;;;1.52;1.42;;;24.20;42.40;;;;;;4822737;29;20382;-61
2022/09/23 12:52:16;;;;;;;1.75;1.40;;;23.90;44.30;;;;;;4822814;29;20042;-65
2022/09/23 12:54:47;;;;;;;1.50;1.40;;;23.80;44.50;;;;;;4823393;29;20366;-63
2022/09/23 12:57:33;;;;;;;2.05;1.80;;;23.60;42.80;;;;;;4823816;29;20027;-61
2022/09/23 13:00:05;;;;;;;1.77;1.65;;;23.50;45.00;;;;;;4823548;29;20034;-63
2022/09/23 13:02:41;;;;;;;1.70;1.60;;;23.30;47.00;;;;;;4824569;29;20101;-64
2022/09/23 13:07:57;;;;;;;1.50;1.40;;;23.20;43.60;;;;;;4827637;29;20114;-64
2022/09/23 13:10:32;;;;;;;2.55;1.67;;;23.30;45.30;;;;;;4827348;29;20103;-64
2022/09/23 13:13:01;;;;;;;1.30;1.20;;;23.30;41.90;;;;;;4827379;29;20038;-65
2022/09/23 13:15:34;;;;;;;1.70;1.60;;;23.00;42.70;;;;;;4827214;29;20481;-63
2022/09/23 13:18:21;;;;;;;1.20;1.10;;;23.50;43.60;;;;;;4827318;29;20557;-64
2022/09/23 13:20:51;;;;;;;1.60;1.45;;;23.80;43.50;;;;;;4831514;29;20506;-64
2022/09/23 13:23:31;;;;;;;1.98;1.58;;;23.80;44.20;;;;;;4845887;29;20042;-60
2022/09/23 13:26:00;;;;;;;1.65;1.33;;;23.70;43.30;;;;;;4845751;29;20018;-61